createdAt,value
2023-06-30T00:02:11.596Z,78.69
2023-06-30T00:05:17.599Z,78.27
2023-06-30T00:08:20.475Z,78.68
2023-06-30T00:11:25.199Z,78.80
2023-06-30T00:14:27.978Z,78.75
2023-06-30T00:17:30.749Z,78.13
2023-06-30T00:20:35.181Z,78.32
2023-06-30T00:23:38.002Z,78.73
2023-06-30T00:26:41.795Z,79.05
2023-06-30T00:29:45.523Z,78.79
2023-06-30T00:32:48.323Z,79.40
2023-06-30T00:35:52.135Z,79.96
2023-06-30T00:38:56.171Z,79.50
2023-06-30T00:41:59.032Z,79.64
2023-06-30T00:45:01.827Z,79.40
2023-06-30T00:48:04.915Z,79.29
2023-06-30T00:51:07.924Z,79.03
2023-06-30T00:54:10.692Z,79.49
2023-06-30T00:57:13.420Z,79.40
2023-06-30T01:00:16.750Z,79.83
2023-06-30T01:03:31.797Z,79.14
2023-06-30T01:07:03.503Z,79.14
2023-06-30T01:10:13.833Z,79.25
2023-06-30T01:13:18.637Z,79.51
2023-06-30T01:16:23.283Z,79.35
2023-06-30T01:19:36.690Z,79.80
2023-06-30T01:22:49.916Z,79.76
2023-06-30T01:25:53.664Z,79.16
2023-06-30T01:28:57.572Z,79.24
2023-06-30T01:32:01.979Z,79.37
2023-06-30T01:35:05.625Z,79.36
2023-06-30T01:38:08.411Z,79.29
2023-06-30T01:41:12.464Z,79.21
2023-06-30T01:44:15.680Z,79.04
2023-06-30T01:47:18.522Z,78.51
2023-06-30T01:50:21.876Z,78.77
2023-06-30T01:53:25.556Z,79.12
2023-06-30T01:56:28.312Z,79.63
2023-06-30T01:59:31.055Z,79.29
2023-06-30T02:02:34.001Z,79.23
2023-06-30T02:05:36.834Z,79.22
2023-06-30T02:08:39.585Z,79.57
2023-06-30T02:11:42.360Z,79.66
2023-06-30T02:14:50.727Z,79.60
2023-06-30T02:17:54.943Z,79.35
2023-06-30T02:20:57.756Z,79.54
2023-06-30T02:24:01.805Z,79.96
2023-06-30T02:27:04.663Z,79.45
2023-06-30T02:30:09.543Z,80.06
2023-06-30T02:33:12.394Z,80.40
2023-06-30T02:36:15.137Z,80.25
2023-06-30T02:39:17.892Z,80.77
2023-06-30T02:42:21.911Z,80.29
2023-06-30T02:45:24.735Z,80.25
2023-06-30T02:48:27.491Z,80.31
2023-06-30T02:51:30.263Z,80.30
2023-06-30T02:54:33.007Z,79.65
2023-06-30T02:57:35.758Z,79.31
2023-06-30T03:00:41.173Z,79.28
2023-06-30T03:03:44.307Z,79.49
2023-06-30T03:06:47.572Z,79.44
2023-06-30T03:09:51.834Z,79.39
2023-06-30T03:12:54.650Z,79.59
2023-06-30T03:15:58.958Z,79.25
2023-06-30T03:19:01.693Z,78.70
2023-06-30T03:22:05.025Z,78.92
2023-06-30T03:25:12.264Z,78.77
2023-06-30T03:28:15.000Z,78.19
2023-06-30T03:31:17.872Z,78.58
2023-06-30T03:34:20.802Z,78.40
2023-06-30T03:37:23.673Z,78.36
2023-06-30T03:40:26.442Z,78.20
2023-06-30T03:43:29.371Z,78.11
2023-06-30T03:46:32.148Z,77.87
2023-06-30T03:49:34.919Z,77.83
2023-06-30T03:52:39.617Z,77.93
2023-06-30T03:55:42.679Z,78.60
2023-06-30T03:58:46.970Z,78.42
2023-06-30T04:01:49.925Z,77.96
2023-06-30T04:04:52.674Z,77.38
2023-06-30T04:07:55.479Z,77.38
2023-06-30T04:10:58.354Z,77.58
2023-06-30T04:14:01.057Z,77.63
2023-06-30T04:17:04.076Z,77.81
2023-06-30T04:20:11.112Z,77.38
2023-06-30T04:23:13.916Z,76.57
2023-06-30T04:26:19.690Z,77.68
2023-06-30T04:29:22.407Z,77.16
2023-06-30T04:32:26.664Z,77.47
2023-06-30T04:35:29.486Z,77.41
2023-06-30T04:38:32.233Z,78.09
2023-06-30T04:41:35.035Z,78.17
2023-06-30T04:44:38.664Z,76.61
2023-06-30T04:47:41.515Z,76.19
2023-06-30T04:50:44.576Z,77.21
2023-06-30T04:53:47.369Z,76.26
2023-06-30T04:56:50.209Z,75.55
2023-06-30T04:59:55.384Z,76.08
2023-06-30T05:02:58.742Z,75.68
2023-06-30T05:06:01.608Z,75.58
2023-06-30T05:09:04.338Z,75.38
2023-06-30T05:12:07.599Z,75.10
2023-06-30T05:15:10.503Z,75.09
2023-06-30T05:18:13.329Z,75.16
2023-06-30T05:21:16.152Z,74.69
2023-06-30T05:24:18.942Z,73.80
2023-06-30T05:27:21.625Z,74.26
2023-06-30T05:30:24.391Z,74.77
2023-06-30T05:33:27.174Z,74.10
2023-06-30T05:36:34.883Z,74.12
2023-06-30T05:39:37.781Z,74.43
2023-06-30T05:42:40.537Z,74.43
2023-06-30T05:45:43.513Z,72.35
2023-06-30T05:48:46.371Z,68.31
2023-06-30T05:51:49.727Z,65.71
2023-06-30T05:54:52.653Z,65.16
2023-06-30T05:57:55.448Z,64.86
2023-06-30T06:00:58.213Z,64.55
2023-06-30T06:04:01.233Z,63.98
2023-06-30T06:07:06.634Z,64.19
2023-06-30T06:10:09.790Z,63.21
2023-06-30T06:13:12.541Z,63.79
2023-06-30T06:16:15.392Z,61.03
2023-06-30T06:19:18.690Z,61.24
2023-06-30T06:22:21.434Z,60.77
2023-06-30T06:25:24.181Z,61.05
2023-06-30T06:28:26.871Z,60.42
2023-06-30T06:31:30.698Z,59.60
2023-06-30T06:34:34.699Z,59.59
2023-06-30T06:37:37.470Z,60.43
2023-06-30T06:40:40.338Z,58.95
2023-06-30T06:43:43.595Z,57.72
2023-06-30T06:46:46.519Z,56.76
2023-06-30T06:49:49.345Z,56.75
2023-06-30T06:52:52.040Z,57.91
2023-06-30T06:55:56.295Z,57.34
2023-06-30T06:58:58.996Z,56.12
2023-06-30T07:02:01.758Z,55.64
2023-06-30T07:05:04.818Z,55.10
2023-06-30T07:08:08.547Z,54.46
2023-06-30T07:11:12.189Z,53.44
2023-06-30T07:14:14.958Z,52.60
2023-06-30T07:17:17.769Z,52.13
2023-06-30T07:20:20.619Z,51.69
2023-06-30T07:23:26.436Z,49.84
2023-06-30T07:26:32.772Z,50.65
2023-06-30T07:29:35.500Z,50.39
2023-06-30T07:32:38.314Z,50.30
2023-06-30T07:35:41.147Z,49.06
2023-06-30T07:38:43.944Z,49.64
2023-06-30T07:41:46.676Z,49.48
2023-06-30T07:44:50.553Z,49.08
2023-06-30T07:47:53.500Z,50.04
2023-06-30T07:51:08.653Z,48.75
2023-06-30T07:54:12.395Z,50.86
2023-06-30T07:57:15.108Z,49.97
2023-06-30T08:00:19.772Z,48.96
2023-06-30T08:03:22.755Z,48.31
2023-06-30T08:06:26.688Z,47.13
2023-06-30T08:09:29.406Z,47.21
2023-06-30T08:12:32.623Z,48.46
2023-06-30T08:15:35.377Z,46.04
2023-06-30T08:18:38.196Z,44.96
2023-06-30T08:21:53.189Z,45.56
2023-06-30T08:24:56.244Z,43.99
2023-06-30T08:27:59.056Z,45.26
2023-06-30T08:31:01.771Z,44.46
2023-06-30T08:34:05.749Z,43.78
2023-06-30T08:37:08.501Z,44.66
2023-06-30T08:40:11.868Z,42.65
2023-06-30T08:43:16.502Z,42.11
2023-06-30T08:46:23.988Z,42.40
2023-06-30T08:49:27.550Z,41.74
2023-06-30T08:52:30.917Z,45.17
2023-06-30T08:55:34.093Z,43.91
2023-06-30T08:58:38.482Z,42.88
2023-06-30T09:01:44.865Z,43.63
2023-06-30T09:04:49.489Z,44.38
2023-06-30T09:07:57.442Z,42.44
2023-06-30T09:11:00.872Z,42.57
2023-06-30T09:14:05.335Z,41.54
2023-06-30T09:17:08.234Z,40.49
2023-06-30T09:20:15.652Z,40.31
2023-06-30T09:23:19.613Z,39.65
2023-06-30T09:26:22.374Z,40.13
2023-06-30T09:29:25.369Z,38.81
2023-06-30T09:32:33.474Z,37.74
2023-06-30T09:35:40.453Z,38.88
2023-06-30T09:38:43.197Z,38.68
2023-06-30T09:41:47.225Z,38.49
2023-06-30T09:44:53.629Z,37.25
2023-06-30T09:47:56.944Z,37.84
2023-06-30T09:51:01.321Z,38.42
2023-06-30T09:54:09.893Z,36.50
2023-06-30T09:57:12.757Z,35.44
2023-06-30T10:00:30.242Z,35.81
2023-06-30T10:03:51.079Z,36.60
2023-06-30T10:06:55.129Z,36.62
2023-06-30T10:09:58.713Z,36.32
2023-06-30T10:13:03.599Z,37.36
2023-06-30T10:16:07.440Z,36.50
